createdAt,value
2019-03-13T00:00:07.991Z,850.08
2019-03-13T00:01:07.855Z,850.04
2019-03-13T00:02:07.717Z,850.06
2019-03-13T00:03:07.590Z,850.02
2019-03-13T00:04:07.450Z,849.99
2019-03-13T00:05:07.316Z,849.92
2019-03-13T00:06:07.180Z,849.88
2019-03-13T00:07:07.050Z,849.82
2019-03-13T00:08:06.913Z,849.76
2019-03-13T00:09:06.779Z,849.70
2019-03-13T00:10:06.648Z,849.79
2019-03-13T00:11:06.507Z,849.79
2019-03-13T00:12:06.377Z,849.88
2019-03-13T00:13:06.240Z,849.85
2019-03-13T00:14:06.103Z,849.84
2019-03-13T00:15:05.970Z,849.78
2019-03-13T00:16:05.839Z,849.77
2019-03-13T00:17:05.701Z,849.68
2019-03-13T00:18:05.623Z,849.63
2019-03-13T00:19:05.434Z,849.60
2019-03-13T00:20:05.296Z,849.54
2019-03-13T00:21:05.160Z,849.52
2019-03-13T00:22:05.025Z,849.54
2019-03-13T00:23:04.898Z,849.52
2019-03-13T00:24:04.755Z,849.45
2019-03-13T00:25:04.624Z,849.44
2019-03-13T00:26:06.275Z,849.46
2019-03-13T00:27:04.353Z,849.42
2019-03-13T00:28:04.217Z,849.42
2019-03-13T00:29:04.082Z,849.42
2019-03-13T00:30:03.950Z,849.40
2019-03-13T00:31:03.811Z,849.31
2019-03-13T00:32:03.687Z,849.29
2019-03-13T00:33:03.545Z,849.31
2019-03-13T00:34:03.411Z,849.35
2019-03-13T00:35:03.285Z,849.39
2019-03-13T00:36:03.139Z,849.38
2019-03-13T00:37:03.003Z,849.36
2019-03-13T00:38:02.873Z,849.32
2019-03-13T00:39:02.738Z,849.30
2019-03-13T00:40:02.601Z,849.25
2019-03-13T00:41:02.476Z,849.16
2019-03-13T00:42:02.333Z,849.13
2019-03-13T00:43:02.193Z,849.10
2019-03-13T00:44:02.064Z,849.13
2019-03-13T00:45:01.931Z,849.16
2019-03-13T00:46:01.800Z,849.16
2019-03-13T00:47:01.660Z,849.16
2019-03-13T00:48:01.522Z,849.15
2019-03-13T00:49:01.390Z,849.14
2019-03-13T00:50:01.253Z,849.10
2019-03-13T00:51:01.120Z,849.11
2019-03-13T00:52:00.982Z,849.16
2019-03-13T00:53:00.849Z,849.18
2019-03-13T00:54:00.711Z,849.11
2019-03-13T00:55:00.579Z,849.09
2019-03-13T00:56:00.442Z,849.01
2019-03-13T00:57:00.317Z,848.95
2019-03-13T00:58:00.180Z,848.95
2019-03-13T00:59:00.040Z,848.97
2019-03-13T00:59:59.905Z,848.96
2019-03-13T01:00:59.771Z,848.91
2019-03-13T01:01:59.635Z,848.80
2019-03-13T01:02:59.501Z,848.65
2019-03-13T01:03:59.367Z,848.48
2019-03-13T01:04:59.232Z,848.50
2019-03-13T01:05:59.098Z,848.54
2019-03-13T01:06:58.962Z,848.59
2019-03-13T01:07:58.827Z,848.60
2019-03-13T01:08:58.697Z,848.62
2019-03-13T01:09:58.561Z,848.64
2019-03-13T01:10:58.424Z,848.68
2019-03-13T01:11:58.315Z,848.68
2019-03-13T01:12:58.154Z,848.73
2019-03-13T01:13:58.020Z,848.76
2019-03-13T01:14:57.887Z,848.71
2019-03-13T01:15:57.753Z,848.67
2019-03-13T01:16:57.618Z,848.68
2019-03-13T01:17:57.487Z,848.65
2019-03-13T01:18:57.350Z,848.64
2019-03-13T01:19:57.214Z,848.64
2019-03-13T01:20:57.123Z,848.55
2019-03-13T01:21:56.943Z,848.53
2019-03-13T01:22:56.821Z,848.50
2019-03-13T01:23:56.678Z,848.50
2019-03-13T01:24:56.541Z,848.48
2019-03-13T01:25:56.407Z,848.50
2019-03-13T01:26:56.275Z,848.50
2019-03-13T01:27:56.143Z,848.44
2019-03-13T01:28:56.004Z,848.43
2019-03-13T01:29:55.870Z,848.35
2019-03-13T01:30:55.734Z,848.32
2019-03-13T01:31:55.603Z,848.34
2019-03-13T01:32:55.468Z,848.29
2019-03-13T01:33:55.332Z,848.30
2019-03-13T01:34:55.199Z,848.25
2019-03-13T01:35:55.066Z,848.24
2019-03-13T01:36:54.931Z,848.19
2019-03-13T01:37:54.794Z,848.17
2019-03-13T01:38:54.661Z,848.09
2019-03-13T01:39:54.527Z,848.08
2019-03-13T01:40:54.391Z,848.01
2019-03-13T01:41:54.257Z,847.97
2019-03-13T01:42:54.124Z,847.93
2019-03-13T01:43:53.990Z,847.92
2019-03-13T01:44:53.859Z,847.90
2019-03-13T01:45:53.719Z,847.95
2019-03-13T01:46:53.587Z,847.93
2019-03-13T01:47:53.452Z,847.88
2019-03-13T01:48:53.316Z,847.89
2019-03-13T01:49:53.185Z,847.85
2019-03-13T01:50:53.048Z,847.85
2019-03-13T01:51:52.914Z,847.90
2019-03-13T01:52:52.782Z,847.89
2019-03-13T01:53:52.646Z,847.95
2019-03-13T01:54:52.513Z,847.94
2019-03-13T01:55:52.377Z,847.90
2019-03-13T01:56:52.245Z,847.87
2019-03-13T01:57:52.108Z,847.85
2019-03-13T01:58:51.973Z,847.84
2019-03-13T01:59:51.840Z,847.85
2019-03-13T02:00:51.706Z,847.91
2019-03-13T02:01:51.573Z,847.88
2019-03-13T02:02:51.443Z,847.86
2019-03-13T02:03:51.303Z,847.86
2019-03-13T02:04:51.172Z,847.83
2019-03-13T02:05:51.037Z,847.84
2019-03-13T02:06:50.901Z,847.85
2019-03-13T02:07:50.768Z,847.88
2019-03-13T02:08:50.636Z,847.83
2019-03-13T02:09:50.500Z,847.86
2019-03-13T02:10:50.369Z,847.90
2019-03-13T02:11:50.235Z,847.90
2019-03-13T02:12:50.099Z,847.92
2019-03-13T02:13:49.974Z,847.97
2019-03-13T02:14:49.832Z,847.99
2019-03-13T02:15:49.699Z,847.96
2019-03-13T02:16:49.564Z,847.96
2019-03-13T02:17:49.431Z,847.92
2019-03-13T02:18:49.296Z,847.88
2019-03-13T02:19:49.904Z,847.90
2019-03-13T02:20:49.031Z,847.91
2019-03-13T02:21:48.899Z,847.92
2019-03-13T02:22:48.765Z,847.89
2019-03-13T02:23:48.632Z,847.96
2019-03-13T02:24:48.498Z,848.00
2019-03-13T02:25:48.372Z,848.05
2019-03-13T02:26:48.229Z,848.10
2019-03-13T02:27:48.099Z,848.13
2019-03-13T02:28:47.965Z,848.06
2019-03-13T02:29:47.830Z,847.99
2019-03-13T02:30:47.698Z,847.95
2019-03-13T02:31:47.565Z,848.05
2019-03-13T02:32:47.430Z,848.05
2019-03-13T02:33:47.299Z,848.05
2019-03-13T02:34:47.172Z,847.94
2019-03-13T02:35:47.031Z,847.91
2019-03-13T02:36:46.897Z,847.93
2019-03-13T02:37:46.767Z,847.98
2019-03-13T02:38:46.631Z,848.01
2019-03-13T02:39:46.499Z,847.99
2019-03-13T02:40:46.365Z,848.04
2019-03-13T02:41:46.230Z,848.04
2019-03-13T02:42:46.099Z,848.04
2019-03-13T02:43:45.965Z,848.11
2019-03-13T02:44:45.832Z,848.21
2019-03-13T02:45:45.717Z,848.29
2019-03-13T02:46:45.562Z,848.36
2019-03-13T02:47:45.435Z,848.36
2019-03-13T02:48:45.297Z,848.39
2019-03-13T02:49:45.199Z,848.46
2019-03-13T02:50:45.030Z,848.52
2019-03-13T02:51:44.895Z,848.53
2019-03-13T02:52:44.769Z,848.58
2019-03-13T02:53:44.628Z,848.60
2019-03-13T02:54:44.496Z,848.60
2019-03-13T02:55:44.365Z,848.60
2019-03-13T02:56:44.231Z,848.60
2019-03-13T02:57:44.096Z,848.65
2019-03-13T02:58:43.963Z,848.61
2019-03-13T02:59:43.829Z,848.53
2019-03-13T03:00:43.699Z,848.49
2019-03-13T03:01:43.572Z,848.48
2019-03-13T03:02:43.431Z,848.47
2019-03-13T03:03:43.306Z,848.45
2019-03-13T03:04:43.169Z,848.42
2019-03-13T03:05:43.028Z,848.46
2019-03-13T03:06:42.899Z,848.46
2019-03-13T03:07:42.763Z,848.49
2019-03-13T03:08:42.629Z,848.57
2019-03-13T03:09:42.498Z,848.63
2019-03-13T03:10:42.362Z,848.69
2019-03-13T03:11:42.228Z,848.75
2019-03-13T03:12:42.173Z,848.76
2019-03-13T03:13:41.964Z,848.74
2019-03-13T03:14:41.829Z,848.72
2019-03-13T03:15:41.693Z,848.71
2019-03-13T03:16:41.581Z,848.69
2019-03-13T03:17:41.424Z,848.70
2019-03-13T03:18:41.300Z,848.75
2019-03-13T03:19:41.158Z,848.75
2019-03-13T03:20:41.026Z,848.74
2019-03-13T03:21:40.894Z,848.77
2019-03-13T03:22:40.765Z,848.73
2019-03-13T03:23:44.998Z,848.70
2019-03-13T03:24:40.493Z,848.69
2019-03-13T03:25:40.362Z,848.74
2019-03-13T03:26:40.224Z,848.79
2019-03-13T03:27:40.097Z,848.82
2019-03-13T03:28:39.958Z,848.87
2019-03-13T03:29:39.825Z,848.92
2019-03-13T03:30:39.693Z,848.96
2019-03-13T03:31:39.573Z,849.03
2019-03-13T03:32:39.424Z,849.09
2019-03-13T03:33:39.292Z,849.14
2019-03-13T03:34:39.179Z,849.17
2019-03-13T03:35:39.022Z,849.16
2019-03-13T03:36:38.889Z,849.20
2019-03-13T03:37:38.769Z,849.26
2019-03-13T03:38:38.621Z,849.28
2019-03-13T03:39:38.489Z,849.37
2019-03-13T03:40:38.353Z,849.42
2019-03-13T03:41:38.220Z,849.44
2019-03-13T03:42:38.085Z,849.39
2019-03-13T03:43:40.578Z,849.28
2019-03-13T03:44:37.821Z,849.24
2019-03-13T03:45:37.682Z,849.27
2019-03-13T03:46:37.551Z,849.39
2019-03-13T03:47:37.414Z,849.44
2019-03-13T03:48:37.282Z,849.48
2019-03-13T03:49:37.158Z,849.47
2019-03-13T03:50:37.018Z,849.48
2019-03-13T03:51:36.881Z,849.47
2019-03-13T03:52:36.759Z,849.47
2019-03-13T03:53:36.614Z,849.45
2019-03-13T03:54:36.492Z,849.42
2019-03-13T03:55:36.347Z,849.41
2019-03-13T03:56:36.220Z,849.37
2019-03-13T03:57:36.083Z,849.40
2019-03-13T03:58:35.953Z,849.37
2019-03-13T03:59:35.812Z,849.37
2019-03-13T04:00:35.680Z,849.36
2019-03-13T04:01:35.553Z,849.36
2019-03-13T04:02:35.413Z,849.41
2019-03-13T04:03:35.294Z,849.46
2019-03-13T04:04:35.147Z,849.45
2019-03-13T04:05:35.009Z,849.42
2019-03-13T04:06:34.877Z,849.39
2019-03-13T04:07:34.745Z,849.37
2019-03-13T04:08:37.880Z,849.40
2019-03-13T04:09:34.478Z,849.42
2019-03-13T04:10:34.343Z,849.46
2019-03-13T04:11:34.210Z,849.45
2019-03-13T04:12:34.079Z,849.45
2019-03-13T04:13:33.944Z,849.43
2019-03-13T04:14:33.843Z,849.45
2019-03-13T04:15:33.677Z,849.44
2019-03-13T04:16:33.545Z,849.39
2019-03-13T04:17:33.408Z,849.37
2019-03-13T04:18:33.275Z,849.30
2019-03-13T04:19:33.141Z,849.30
2019-03-13T04:20:33.009Z,849.26
2019-03-13T04:21:32.885Z,849.29
2019-03-13T04:22:32.753Z,849.29
2019-03-13T04:23:32.617Z,849.26
2019-03-13T04:24:32.479Z,849.26
2019-03-13T04:25:32.345Z,849.30
2019-03-13T04:26:32.214Z,849.30
2019-03-13T04:27:32.076Z,849.34
2019-03-13T04:28:31.943Z,849.30
2019-03-13T04:29:31.811Z,849.31
2019-03-13T04:30:31.673Z,849.33
2019-03-13T04:31:31.539Z,849.33
2019-03-13T04:32:31.406Z,849.32
2019-03-13T04:33:31.274Z,849.34
2019-03-13T04:34:31.143Z,849.35
2019-03-13T04:35:31.006Z,849.37
2019-03-13T04:36:30.878Z,849.35
2019-03-13T04:37:30.742Z,849.35
2019-03-13T04:38:30.605Z,849.28
2019-03-13T04:39:30.472Z,849.25
2019-03-13T04:40:30.339Z,849.26
2019-03-13T04:41:30.206Z,849.24
2019-03-13T04:42:30.073Z,849.24
2019-03-13T04:43:29.940Z,849.21
2019-03-13T04:44:29.806Z,849.20
2019-03-13T04:45:29.674Z,849.16
2019-03-13T04:46:29.538Z,849.19
2019-03-13T04:47:29.406Z,849.17
2019-03-13T04:48:29.276Z,849.15
2019-03-13T04:49:29.136Z,849.20
2019-03-13T04:50:29.002Z,849.22
2019-03-13T04:51:28.874Z,849.26
2019-03-13T04:52:28.742Z,849.28
2019-03-13T04:53:28.629Z,849.31
2019-03-13T04:54:28.470Z,849.34
2019-03-13T04:55:28.338Z,849.36
2019-03-13T04:56:28.203Z,849.34
2019-03-13T04:57:28.066Z,849.33
2019-03-13T04:58:27.931Z,849.30
2019-03-13T04:59:27.810Z,849.34
2019-03-13T05:00:27.671Z,849.34
2019-03-13T05:01:27.538Z,849.33
2019-03-13T05:02:27.398Z,849.31
2019-03-13T05:03:27.264Z,849.23
2019-03-13T05:04:27.133Z,849.26
2019-03-13T05:05:26.997Z,849.29
2019-03-13T05:06:26.871Z,849.33
2019-03-13T05:07:26.733Z,849.31
2019-03-13T05:08:26.601Z,849.33
2019-03-13T05:09:26.463Z,849.30
2019-03-13T05:10:26.330Z,849.27
2019-03-13T05:11:26.199Z,849.27
2019-03-13T05:12:26.065Z,849.26
2019-03-13T05:13:25.932Z,849.27
2019-03-13T05:14:25.805Z,849.18
2019-03-13T05:15:25.663Z,849.21
2019-03-13T05:16:25.531Z,849.19
2019-03-13T05:17:25.394Z,849.24
2019-03-13T05:18:25.264Z,849.22
2019-03-13T05:19:25.128Z,849.26
2019-03-13T05:20:24.997Z,849.26
2019-03-13T05:21:24.861Z,849.25
2019-03-13T05:22:24.729Z,849.24
2019-03-13T05:23:24.595Z,849.23
2019-03-13T05:24:24.460Z,849.25
2019-03-13T05:25:24.332Z,849.25
2019-03-13T05:26:24.195Z,849.29
2019-03-13T05:27:24.067Z,849.27
2019-03-13T05:28:23.927Z,849.27
2019-03-13T05:29:23.792Z,849.32
2019-03-13T05:30:23.661Z,849.33
2019-03-13T05:31:23.528Z,849.33
2019-03-13T05:32:23.397Z,849.33
2019-03-13T05:33:23.261Z,849.35
2019-03-13T05:34:23.133Z,849.34
2019-03-13T05:35:22.993Z,849.35
2019-03-13T05:36:22.860Z,849.33
2019-03-13T05:37:22.726Z,849.35
2019-03-13T05:38:22.594Z,849.33
2019-03-13T05:39:22.460Z,849.31
2019-03-13T05:40:22.330Z,849.28
2019-03-13T05:41:22.195Z,849.24
2019-03-13T05:42:22.061Z,849.26
2019-03-13T05:43:21.932Z,849.25
2019-03-13T05:44:21.803Z,849.26
2019-03-13T05:45:21.662Z,849.23
2019-03-13T05:46:21.532Z,849.32
2019-03-13T05:47:21.398Z,849.30
2019-03-13T05:48:21.262Z,849.31
2019-03-13T05:49:21.132Z,849.32
2019-03-13T05:50:20.996Z,849.28
2019-03-13T05:51:20.863Z,849.31
2019-03-13T05:52:20.731Z,849.34
2019-03-13T05:53:20.639Z,849.35
2019-03-13T05:54:20.467Z,849.36
2019-03-13T05:55:20.336Z,849.32
2019-03-13T05:56:20.202Z,849.30
2019-03-13T05:57:20.069Z,849.31
2019-03-13T05:58:19.933Z,849.33
2019-03-13T05:59:19.800Z,849.39
2019-03-13T06:00:19.669Z,849.39
2019-03-13T06:01:19.536Z,849.39
2019-03-13T06:02:19.399Z,849.39
2019-03-13T06:03:19.282Z,849.34
2019-03-13T06:04:19.136Z,849.32
2019-03-13T06:05:19.893Z,849.32
2019-03-13T06:06:18.875Z,849.30
2019-03-13T06:07:18.738Z,849.32
2019-03-13T06:08:18.825Z,849.30
2019-03-13T06:09:18.474Z,849.31
2019-03-13T06:10:18.345Z,849.28
2019-03-13T06:11:18.212Z,849.31
2019-03-13T06:12:18.072Z,849.33
2019-03-13T06:13:17.945Z,849.35
2019-03-13T06:14:17.813Z,849.38
2019-03-13T06:15:17.674Z,849.37
2019-03-13T06:16:17.643Z,849.39
2019-03-13T06:17:17.412Z,849.41
2019-03-13T06:18:17.276Z,849.42
2019-03-13T06:19:17.145Z,849.43
2019-03-13T06:20:17.009Z,849.43
2019-03-13T06:21:16.883Z,849.45
2019-03-13T06:22:16.746Z,849.47
2019-03-13T06:23:16.613Z,849.45
2019-03-13T06:24:16.557Z,849.47
2019-03-13T06:25:16.349Z,849.46
2019-03-13T06:26:16.219Z,849.44
2019-03-13T06:27:16.088Z,849.45
2019-03-13T06:28:15.950Z,849.45
2019-03-13T06:29:15.837Z,849.45
2019-03-13T06:30:15.681Z,849.42
2019-03-13T06:31:15.546Z,849.42
2019-03-13T06:32:15.413Z,849.46
2019-03-13T06:33:15.281Z,849.47
2019-03-13T06:34:15.904Z,849.43
2019-03-13T06:35:15.014Z,849.45
2019-03-13T06:36:14.882Z,849.48
2019-03-13T06:37:14.746Z,849.51
2019-03-13T06:38:14.614Z,849.52
2019-03-13T06:39:14.493Z,849.54
2019-03-13T06:40:14.347Z,849.54
2019-03-13T06:41:14.213Z,849.53
2019-03-13T06:42:14.082Z,849.58
2019-03-13T06:43:13.949Z,849.54
2019-03-13T06:44:13.814Z,849.54
2019-03-13T06:45:13.683Z,849.52
2019-03-13T06:46:13.546Z,849.51
2019-03-13T06:47:13.414Z,849.49
2019-03-13T06:48:13.280Z,849.49
2019-03-13T06:49:13.148Z,849.47
2019-03-13T06:50:13.018Z,849.47
2019-03-13T06:51:12.880Z,849.48
2019-03-13T06:52:12.750Z,849.48
2019-03-13T06:53:12.625Z,849.50
2019-03-13T06:54:12.482Z,849.50
2019-03-13T06:55:12.347Z,849.50
2019-03-13T06:56:12.221Z,849.49
2019-03-13T06:57:12.086Z,849.50
2019-03-13T06:58:11.948Z,849.43
2019-03-13T06:59:13.578Z,849.45
2019-03-13T07:00:11.685Z,849.42
2019-03-13T07:01:11.551Z,849.36
2019-03-13T07:02:11.416Z,849.39
2019-03-13T07:03:11.914Z,849.37
2019-03-13T07:04:11.154Z,849.36
2019-03-13T07:05:11.017Z,849.34
2019-03-13T07:06:10.905Z,849.31
2019-03-13T07:07:10.753Z,849.32
2019-03-13T07:08:10.620Z,849.37
2019-03-13T07:09:10.487Z,849.38
2019-03-13T07:10:10.353Z,849.33
2019-03-13T07:11:10.222Z,849.34
2019-03-13T07:12:10.091Z,849.31
2019-03-13T07:13:09.956Z,849.31
2019-03-13T07:14:09.824Z,849.32
2019-03-13T07:15:09.690Z,849.32
2019-03-13T07:16:09.565Z,849.35
2019-03-13T07:17:09.423Z,849.38
2019-03-13T07:18:09.288Z,849.40
2019-03-13T07:19:09.155Z,849.42
2019-03-13T07:20:09.025Z,849.42
2019-03-13T07:21:08.893Z,849.44
2019-03-13T07:22:08.756Z,849.47
2019-03-13T07:23:08.624Z,849.50
2019-03-13T07:24:08.493Z,849.51
2019-03-13T07:25:08.358Z,849.50
2019-03-13T07:26:08.231Z,849.51
2019-03-13T07:27:08.095Z,849.52
2019-03-13T07:28:07.958Z,849.52
2019-03-13T07:29:12.480Z,849.52
2019-03-13T07:30:07.702Z,849.50
2019-03-13T07:31:07.563Z,849.52
2019-03-13T07:32:07.918Z,849.53
2019-03-13T07:33:07.292Z,849.52
2019-03-13T07:34:07.253Z,849.55
2019-03-13T07:35:07.027Z,849.57
2019-03-13T07:36:06.892Z,849.58
2019-03-13T07:37:06.758Z,849.62
2019-03-13T07:38:06.626Z,849.65
2019-03-13T07:39:06.497Z,849.65
2019-03-13T07:40:06.358Z,849.59
2019-03-13T07:41:06.231Z,849.60
2019-03-13T07:42:06.172Z,849.57
2019-03-13T07:43:07.842Z,849.56
2019-03-13T07:44:05.824Z,849.55
2019-03-13T07:45:05.692Z,849.52
2019-03-13T07:46:05.556Z,849.53
2019-03-13T07:47:05.428Z,849.58
2019-03-13T07:48:05.297Z,849.59
2019-03-13T07:49:05.158Z,849.59
2019-03-13T07:50:05.025Z,849.62
2019-03-13T07:51:04.893Z,849.63
2019-03-13T07:52:04.757Z,849.61
2019-03-13T07:53:04.628Z,849.62
2019-03-13T07:54:04.508Z,849.59
2019-03-13T07:55:04.355Z,849.60
2019-03-13T07:56:04.227Z,849.62
2019-03-13T07:57:04.089Z,849.66
2019-03-13T07:58:03.960Z,849.64
2019-03-13T07:59:03.822Z,849.65
2019-03-13T08:00:03.690Z,849.71
2019-03-13T08:01:03.934Z,849.69
2019-03-13T08:02:03.426Z,849.67
2019-03-13T08:03:03.293Z,849.66
2019-03-13T08:04:05.326Z,849.68
2019-03-13T08:05:03.022Z,849.67
2019-03-13T08:06:02.909Z,849.69
2019-03-13T08:07:02.757Z,849.71
2019-03-13T08:08:02.626Z,849.74
2019-03-13T08:09:02.489Z,849.70
2019-03-13T08:10:02.355Z,849.75
2019-03-13T08:11:02.219Z,849.76
2019-03-13T08:12:02.090Z,849.73
2019-03-13T08:13:01.956Z,849.74
2019-03-13T08:14:01.821Z,849.72
2019-03-13T08:15:01.697Z,849.72
2019-03-13T08:16:01.558Z,849.72
2019-03-13T08:17:01.420Z,849.70
2019-03-13T08:18:01.289Z,849.71
2019-03-13T08:19:01.155Z,849.70
2019-03-13T08:20:01.021Z,849.69
2019-03-13T08:21:00.888Z,849.69
2019-03-13T08:22:00.773Z,849.69
2019-03-13T08:23:00.625Z,849.71
2019-03-13T08:24:00.487Z,849.70
2019-03-13T08:25:00.375Z,849.73
2019-03-13T08:26:00.224Z,849.72
2019-03-13T08:27:00.180Z,849.76
2019-03-13T08:27:59.956Z,849.79
2019-03-13T08:28:59.821Z,849.77
2019-03-13T08:29:59.927Z,849.80
2019-03-13T08:30:59.557Z,849.81
2019-03-13T08:31:59.423Z,849.78
2019-03-13T08:32:59.295Z,849.77
2019-03-13T08:33:59.160Z,849.76
2019-03-13T08:34:59.028Z,849.76
2019-03-13T08:35:58.894Z,849.72
2019-03-13T08:36:58.758Z,849.71
2019-03-13T08:37:58.631Z,849.72
2019-03-13T08:38:58.495Z,849.71
2019-03-13T08:39:58.368Z,849.74
2019-03-13T08:40:58.227Z,849.70
2019-03-13T08:41:58.094Z,849.68
2019-03-13T08:42:57.963Z,849.72
2019-03-13T08:43:57.831Z,849.67
2019-03-13T08:44:57.699Z,849.68
2019-03-13T08:45:57.572Z,849.66
2019-03-13T08:46:57.433Z,849.67
2019-03-13T08:47:57.300Z,849.63
2019-03-13T08:48:57.166Z,849.63
2019-03-13T08:49:57.035Z,849.63
2019-03-13T08:50:56.903Z,849.60
2019-03-13T08:51:56.771Z,849.58
2019-03-13T08:52:56.636Z,849.59
2019-03-13T08:53:56.508Z,849.57
2019-03-13T08:54:56.371Z,849.59
2019-03-13T08:55:56.241Z,849.56
2019-03-13T08:56:56.105Z,849.57
2019-03-13T08:57:55.989Z,849.59
2019-03-13T08:58:55.931Z,849.59
2019-03-13T08:59:55.709Z,849.58
2019-03-13T09:00:55.577Z,849.57
2019-03-13T09:01:55.445Z,849.57
2019-03-13T09:02:55.313Z,849.63
2019-03-13T09:03:55.176Z,849.55
2019-03-13T09:04:55.041Z,849.61
2019-03-13T09:05:54.909Z,849.60
2019-03-13T09:06:54.779Z,849.57
2019-03-13T09:07:54.644Z,849.57
2019-03-13T09:08:54.514Z,849.58
2019-03-13T09:09:54.386Z,849.54
2019-03-13T09:10:54.250Z,849.53
2019-03-13T09:11:54.124Z,849.52
2019-03-13T09:12:53.987Z,849.52
2019-03-13T09:13:53.851Z,849.55
2019-03-13T09:14:53.720Z,849.53
2019-03-13T09:15:53.589Z,849.48
2019-03-13T09:16:53.462Z,849.50
2019-03-13T09:17:53.322Z,849.48
2019-03-13T09:18:53.193Z,849.47
2019-03-13T09:19:53.058Z,849.48
2019-03-13T09:20:52.926Z,849.47
2019-03-13T09:21:52.793Z,849.47
2019-03-13T09:22:52.664Z,849.48
2019-03-13T09:23:52.529Z,849.49
2019-03-13T09:24:52.409Z,849.50
2019-03-13T09:25:52.283Z,849.53
2019-03-13T09:26:52.134Z,849.52
2019-03-13T09:27:52.015Z,849.54
2019-03-13T09:28:51.994Z,849.51
2019-03-13T09:29:51.795Z,849.52
2019-03-13T09:30:51.680Z,849.48
2019-03-13T09:31:51.499Z,849.51
2019-03-13T09:32:51.400Z,849.47
2019-03-13T09:33:51.279Z,849.47
2019-03-13T09:34:51.076Z,849.50
2019-03-13T09:35:51.007Z,849.46
2019-03-13T09:36:50.878Z,849.49
2019-03-13T09:37:50.685Z,849.48
2019-03-13T09:38:50.595Z,849.45
2019-03-13T09:39:50.421Z,849.46
2019-03-13T09:40:50.287Z,849.44
2019-03-13T09:41:50.151Z,849.43
2019-03-13T09:42:50.022Z,849.44
2019-03-13T09:43:49.893Z,849.40
2019-03-13T09:44:49.757Z,849.36
2019-03-13T09:45:49.634Z,849.38
2019-03-13T09:46:49.493Z,849.37
2019-03-13T09:47:49.466Z,849.36
2019-03-13T09:48:49.286Z,849.36
2019-03-13T09:49:49.098Z,849.34
2019-03-13T09:50:48.971Z,849.31
2019-03-13T09:51:48.835Z,849.34
2019-03-13T09:52:48.706Z,849.31
2019-03-13T09:53:48.573Z,849.33
2019-03-13T09:54:48.456Z,849.34
2019-03-13T09:55:48.397Z,849.33
2019-03-13T09:56:48.283Z,849.36
2019-03-13T09:57:48.452Z,849.37
2019-03-13T09:58:48.136Z,849.41
2019-03-13T09:59:47.808Z,849.40
2019-03-13T10:00:47.956Z,849.44
2019-03-13T10:01:47.523Z,849.43
2019-03-13T10:02:47.394Z,849.44
2019-03-13T10:03:47.309Z,849.46
2019-03-13T10:04:47.201Z,849.47
2019-03-13T10:05:46.991Z,849.51
2019-03-13T10:06:47.022Z,849.46
2019-03-13T10:07:47.071Z,849.52
2019-03-13T10:08:46.674Z,849.52
2019-03-13T10:09:46.674Z,849.53
2019-03-13T10:10:46.724Z,849.52
2019-03-13T10:11:46.316Z,849.48
2019-03-13T10:12:46.120Z,849.49
2019-03-13T10:13:45.941Z,849.51
2019-03-13T10:14:45.806Z,849.54
2019-03-13T10:15:45.679Z,849.53
2019-03-13T10:16:45.544Z,849.52
2019-03-13T10:17:45.410Z,849.52
2019-03-13T10:18:45.279Z,849.54
2019-03-13T10:19:45.149Z,849.55
2019-03-13T10:20:45.017Z,849.56
2019-03-13T10:21:44.884Z,849.56
2019-03-13T10:22:44.755Z,849.58
2019-03-13T10:23:44.621Z,849.60
2019-03-13T10:24:44.489Z,849.62
2019-03-13T10:25:44.360Z,849.60
2019-03-13T10:26:44.227Z,849.57
2019-03-13T10:27:44.095Z,849.59
2019-03-13T10:28:43.968Z,849.55
2019-03-13T10:29:43.852Z,849.56
2019-03-13T10:30:43.702Z,849.54
2019-03-13T10:31:46.565Z,849.53
2019-03-13T10:32:43.440Z,849.53
2019-03-13T10:33:43.308Z,849.55
2019-03-13T10:34:43.179Z,849.54
2019-03-13T10:35:43.049Z,849.53
2019-03-13T10:36:42.913Z,849.47
2019-03-13T10:37:42.784Z,849.43
2019-03-13T10:38:42.651Z,849.47
2019-03-13T10:39:42.523Z,849.49
2019-03-13T10:40:42.391Z,849.45
2019-03-13T10:41:42.278Z,849.46
2019-03-13T10:42:42.127Z,849.46
2019-03-13T10:43:41.999Z,849.49
2019-03-13T10:44:41.947Z,849.47
2019-03-13T10:45:41.733Z,849.47
2019-03-13T10:46:41.605Z,849.44
2019-03-13T10:47:41.471Z,849.46
2019-03-13T10:48:41.345Z,849.44
2019-03-13T10:49:41.211Z,849.33
2019-03-13T10:50:41.082Z,849.32
2019-03-13T10:51:40.955Z,849.26
2019-03-13T10:52:40.820Z,849.28
2019-03-13T10:53:40.691Z,849.27
2019-03-13T10:54:40.563Z,849.26
2019-03-13T10:55:40.426Z,849.24
2019-03-13T10:56:40.299Z,849.27
2019-03-13T10:57:40.167Z,849.27
2019-03-13T10:58:40.035Z,849.26
2019-03-13T10:59:39.913Z,849.29
2019-03-13T11:00:39.786Z,849.24
2019-03-13T11:01:39.652Z,849.22
2019-03-13T11:02:39.517Z,849.26
2019-03-13T11:03:39.387Z,849.25
2019-03-13T11:04:39.256Z,849.26
2019-03-13T11:05:39.127Z,849.20
2019-03-13T11:06:38.995Z,849.19
2019-03-13T11:07:38.869Z,849.16
2019-03-13T11:08:38.739Z,849.13
2019-03-13T11:09:38.604Z,849.10
2019-03-13T11:10:38.475Z,849.08
2019-03-13T11:11:38.344Z,849.06
2019-03-13T11:12:38.212Z,849.05
2019-03-13T11:13:38.089Z,849.03
2019-03-13T11:14:37.956Z,849.05
2019-03-13T11:15:37.825Z,849.02
2019-03-13T11:16:37.692Z,849.08
2019-03-13T11:17:37.567Z,849.08
2019-03-13T11:18:37.433Z,849.08
2019-03-13T11:19:37.306Z,849.04
2019-03-13T11:20:38.872Z,849.03
2019-03-13T11:21:37.046Z,848.98
2019-03-13T11:22:36.913Z,849.00
2019-03-13T11:23:36.790Z,848.96
2019-03-13T11:24:36.657Z,848.95
2019-03-13T11:25:36.615Z,848.92
2019-03-13T11:26:36.397Z,848.90
2019-03-13T11:27:36.273Z,848.88
2019-03-13T11:28:36.139Z,848.87
2019-03-13T11:29:36.071Z,848.86
2019-03-13T11:30:35.885Z,848.81
2019-03-13T11:31:35.749Z,848.82
2019-03-13T11:32:35.683Z,848.78
2019-03-13T11:33:35.490Z,848.76
2019-03-13T11:34:35.360Z,848.73
2019-03-13T11:35:35.235Z,848.68
2019-03-13T11:36:35.313Z,848.71
2019-03-13T11:37:34.973Z,848.70
2019-03-13T11:38:34.845Z,848.70
2019-03-13T11:39:34.736Z,848.72
2019-03-13T11:40:34.630Z,848.71
2019-03-13T11:41:34.458Z,848.70
2019-03-13T11:42:34.331Z,848.72
2019-03-13T11:43:34.210Z,848.68
2019-03-13T11:44:34.069Z,848.64
2019-03-13T11:45:33.994Z,848.65
2019-03-13T11:46:33.820Z,848.61
2019-03-13T11:47:42.430Z,848.63
2019-03-13T11:48:33.556Z,848.63
2019-03-13T11:49:33.425Z,848.60
2019-03-13T11:50:33.300Z,848.58
2019-03-13T11:51:33.179Z,848.58
2019-03-13T11:52:33.037Z,848.58
2019-03-13T11:53:32.909Z,848.57
2019-03-13T11:54:32.787Z,848.54
2019-03-13T11:55:32.650Z,848.58
2019-03-13T11:56:32.519Z,848.62
2019-03-13T11:57:32.499Z,848.62
2019-03-13T11:58:32.407Z,848.66
2019-03-13T11:59:32.163Z,848.63
2019-03-13T12:00:32.048Z,848.66
2019-03-13T12:01:44.864Z,848.65
2019-03-13T12:02:31.799Z,848.67
2019-03-13T12:03:32.034Z,848.66
2019-03-13T12:04:31.820Z,848.65
2019-03-13T12:05:33.843Z,848.62
2019-03-13T12:06:31.227Z,848.61
2019-03-13T12:07:31.830Z,848.63
2019-03-13T12:08:30.970Z,848.65
2019-03-13T12:09:37.720Z,848.74
2019-03-13T12:10:31.101Z,848.71
2019-03-13T12:11:31.096Z,848.70
2019-03-13T12:12:30.451Z,848.70
2019-03-13T12:13:30.317Z,848.77
2019-03-13T12:14:30.193Z,848.75
2019-03-13T12:15:30.059Z,848.82
2019-03-13T12:16:29.925Z,848.84
2019-03-13T12:17:29.793Z,848.89
2019-03-13T12:18:29.663Z,848.97
2019-03-13T12:19:29.535Z,848.95
2019-03-13T12:20:29.419Z,849.09
2019-03-13T12:21:29.300Z,849.15
2019-03-13T12:22:29.185Z,849.16
2019-03-13T12:23:29.016Z,849.09
2019-03-13T12:24:28.899Z,849.09
2019-03-13T12:25:28.757Z,849.04
2019-03-13T12:26:28.676Z,849.02